Time;durP1;ratioP1;P1;durP2;ratioP2;P2;SDS_P1;SDS_P2;PMS_P1;PMS_P2;Temp;Humidity;BMP_temperature;BMP_pressure;BME280_temperature;BME280_humidity;BME280_pressure;Samples;Min_cycle;Max_cycle;Signal;HPM_P1;HPM_P2
2021/09/01 00:00:56;;;;;;;;;;;;;;;8.91;100.00;101586.75;5073179;28;19935;-62
2021/09/01 00:03:22;;;;;;;;;;;;;;;8.92;100.00;101588.53;5072926;28;19925;-71
2021/09/01 00:05:49;;;;;;;;;;;;;;;8.97;100.00;101581.00;5072660;28;20291;-61
2021/09/01 00:08:16;;;;;;;;;;;;;;;9.01;100.00;101593.38;5072949;28;19935;-68
2021/09/01 00:10:43;;;;;;;;;;;;;;;9.05;100.00;101584.09;5072872;28;19928;-62
2021/09/01 00:13:09;;;;;;;;;;;;;;;9.03;100.00;101591.44;5072657;28;19931;-62
2021/09/01 00:15:35;;;;;;;;;;;;;;;9.04;100.00;101601.31;5055185;28;19967;-62
2021/09/01 00:18:03;;;;;;;;;;;;;;;9.08;100.00;101599.28;5072632;28;20022;-62
2021/09/01 00:20:29;;;;;;;;;;;;;;;9.11;100.00;101605.38;5072740;28;20407;-62
2021/09/01 00:22:55;;;;;;;;;;;;;;;9.13;100.00;101597.19;5072469;28;20318;-62
2021/09/01 00:25:22;;;;;;;;;;;;;;;9.20;100.00;101604.81;5072789;28;20298;-67
2021/09/01 00:27:48;;;;;;;;;;;;;;;9.17;100.00;101609.56;5072245;28;20402;-71
2021/09/01 00:30:14;;;;;;;;;;;;;;;9.18;100.00;101598.63;5054938;28;19924;-71
2021/09/01 00:32:41;;;;;;;;;;;;;;;9.25;100.00;101595.56;5073031;28;19993;-71
2021/09/01 00:35:09;;;;;;;;;;;;;;;9.36;100.00;101598.44;5072371;28;19931;-62
2021/09/01 00:37:36;;;;;;;;;;;;;;;9.35;100.00;101591.28;5072316;28;19928;-62
2021/09/01 00:40:02;;;;;;;;;;;;;;;9.39;100.00;101600.97;5072291;28;20019;-70
2021/09/01 00:42:28;;;;;;;;;;;;;;;9.38;100.00;101594.69;5071852;28;20399;-70
2021/09/01 00:44:55;;;;;;;;;;;;;;;9.45;100.00;101606.00;5071997;28;19925;-68
2021/09/01 00:47:22;;;;;;;;;;;;;;;9.46;100.00;101604.16;5072066;28;19925;-67
2021/09/01 00:49:49;;;;;;;;;;;;;;;9.48;100.00;101602.25;5072471;28;20336;-67
2021/09/01 00:52:17;;;;;;;;;;;;;;;9.47;100.00;101598.63;5072012;28;19930;-62
2021/09/01 00:54:43;;;;;;;;;;;;;;;9.53;100.00;101600.97;5070961;28;19924;-66
2021/09/01 00:57:10;;;;;;;;;;;;;;;9.52;100.00;101598.38;5071992;28;19931;-62
2021/09/01 00:59:38;;;;;;;;;;;;;;;9.52;100.00;101596.50;5072213;28;20581;-66
2021/09/01 01:02:05;;;;;;;;;;;;;;;9.55;100.00;101599.06;5071444;28;20475;-68
2021/09/01 01:04:32;;;;;;;;;;;;;;;9.58;100.00;101597.09;5071663;28;20277;-68
2021/09/01 01:06:58;;;;;;;;;;;;;;;9.60;100.00;101600.59;5071831;28;19925;-62
2021/09/01 01:09:26;;;;;;;;;;;;;;;9.66;100.00;101600.19;5071627;28;19931;-62
2021/09/01 01:11:58;;;;;;;;;;;;;;;9.73;100.00;101596.13;5071885;28;19925;-62
2021/09/01 01:14:25;;;;;;;;;;;;;;;9.81;100.00;101598.38;5053688;28;20302;-62
2021/09/01 01:16:52;;;;;;;;;;;;;;;9.90;100.00;101597.78;5071584;28;19931;-62
2021/09/01 01:19:20;;;;;;;;;;;;;;;9.92;100.00;101600.38;5071443;28;20319;-67
2021/09/01 01:21:46;;;;;;;;;;;;;;;9.95;100.00;101606.44;5071339;28;19946;-67
2021/09/01 01:24:13;;;;;;;;;;;;;;;9.95;100.00;101609.16;5071597;28;19963;-62
2021/09/01 01:26:40;;;;;;;;;;;;;;;9.98;100.00;101599.97;5071156;28;19935;-62
2021/09/01 01:29:09;;;;;;;;;;;;;;;10.01;100.00;101603.34;5071477;28;19928;-62
2021/09/01 01:31:37;;;;;;;;;;;;;;;10.05;100.00;101604.91;5071378;28;20459;-62
2021/09/01 01:34:03;;;;;;;;;;;;;;;10.07;100.00;101599.38;5071373;28;19925;-62
2021/09/01 01:36:29;;;;;;;;;;;;;;;10.12;100.00;101602.66;5071029;28;20446;-62
2021/09/01 01:38:55;;;;;;;;;;;;;;;10.15;100.00;101598.88;5071235;28;19924;-70
2021/09/01 01:41:22;;;;;;;;;;;;;;;10.19;100.00;101608.53;5071041;28;19931;-71
2021/09/01 01:43:50;;;;;;;;;;;;;;;10.22;100.00;101598.38;5071272;28;19933;-71
2021/09/01 01:46:16;;;;;;;;;;;;;;;10.21;100.00;101596.63;5071344;28;20483;-71
2021/09/01 01:48:42;;;;;;;;;;;;;;;10.22;100.00;101592.94;5071080;28;19929;-62
2021/09/01 01:51:09;;;;;;;;;;;;;;;10.20;100.00;101594.88;5071334;28;20367;-62
2021/09/01 01:53:35;;;;;;;;;;;;;;;10.20;100.00;101596.72;5053302;28;20020;-62
2021/09/01 01:56:01;;;;;;;;;;;;;;;10.18;100.00;101593.22;5071035;28;20059;-62
2021/09/01 01:58:27;;;;;;;;;;;;;;;10.17;100.00;101603.22;5070444;28;19956;-70
2021/09/01 02:00:55;;;;;;;;;;;;;;;10.14;100.00;101600.72;5070932;28;20011;-70
2021/09/01 02:03:21;;;;;;;;;;;;;;;10.11;100.00;101600.03;5071139;28;20490;-70
2021/09/01 02:05:47;;;;;;;;;;;;;;;10.09;100.00;101600.16;5070468;28;20292;-70
2021/09/01 02:08:14;;;;;;;;;;;;;;;10.05;100.00;101602.19;5071166;28;19925;-68
2021/09/01 02:10:40;;;;;;;;;;;;;;;10.04;100.00;101605.84;5070945;28;20027;-67
2021/09/01 02:13:07;;;;;;;;;;;;;;;10.07;100.00;101596.66;5071099;28;19964;-62
2021/09/01 02:15:33;;;;;;;;;;;;;;;10.11;100.00;101590.06;5070700;28;20395;-62
2021/09/01 02:18:01;;;;;;;;;;;;;;;10.16;100.00;101585.19;5070291;28;20311;-62
2021/09/01 02:20:27;;;;;;;;;;;;;;;10.22;100.00;101586.63;5071047;28;19929;-62
2021/09/01 02:22:54;;;;;;;;;;;;;;;10.24;100.00;101579.28;5070938;28;19924;-62
2021/09/01 02:25:20;;;;;;;;;;;;;;;10.31;100.00;101598.72;5070963;28;20027;-71
2021/09/01 02:27:46;;;;;;;;;;;;;;;10.33;100.00;101594.94;5070833;28;20346;-68
2021/09/01 02:30:13;;;;;;;;;;;;;;;10.35;100.00;101605.72;5070861;28;20032;-70
2021/09/01 02:32:40;;;;;;;;;;;;;;;10.35;100.00;101608.44;5071003;28;19932;-71
2021/09/01 02:35:08;;;;;;;;;;;;;;;10.35;100.00;101603.00;5070528;28;19978;-70
2021/09/01 02:37:35;;;;;;;;;;;;;;;10.33;100.00;101605.81;5070405;28;19924;-71
2021/09/01 02:40:01;;;;;;;;;;;;;;;10.35;100.00;101605.72;5070787;28;19925;-67
2021/09/01 02:42:27;;;;;;;;;;;;;;;10.33;100.00;101605.81;5070748;28;20391;-62
2021/09/01 02:44:54;;;;;;;;;;;;;;;10.28;100.00;101602.50;5070411;28;20383;-67
2021/09/01 02:47:21;;;;;;;;;;;;;;;10.27;100.00;101600.78;5071089;28;19924;-62
2021/09/01 02:49:47;;;;;;;;;;;;;;;10.24;100.00;101602.84;5070725;28;20014;-62
2021/09/01 02:52:14;;;;;;;;;;;;;;;10.17;100.00;101595.09;5070644;28;19963;-62
2021/09/01 02:54:41;;;;;;;;;;;;;;;10.13;100.00;101598.09;5070820;28;20019;-68
2021/09/01 02:57:07;;;;;;;;;;;;;;;10.08;100.00;101592.97;5070289;28;19925;-62
2021/09/01 02:59:33;;;;;;;;;;;;;;;10.08;100.00;101595.69;5070755;28;20381;-62
2021/09/01 03:01:59;;;;;;;;;;;;;;;10.08;100.00;101592.13;5070587;28;19924;-63
2021/09/01 03:04:26;;;;;;;;;;;;;;;10.08;100.00;101590.25;5070462;28;20346;-67
2021/09/01 03:06:52;;;;;;;;;;;;;;;10.02;100.00;101593.38;5070353;28;19967;-62
2021/09/01 03:09:20;;;;;;;;;;;;;;;9.99;100.00;101604.44;5070246;28;19934;-67
2021/09/01 03:11:46;;;;;;;;;;;;;;;9.94;100.00;101603.84;5070536;28;20019;-62
2021/09/01 03:14:12;;;;;;;;;;;;;;;9.85;100.00;101600.75;5070057;28;19932;-62
2021/09/01 03:16:38;;;;;;;;;;;;;;;9.81;100.00;101601.94;5070730;28;20209;-70
2021/09/01 03:19:05;;;;;;;;;;;;;;;9.79;100.00;101597.56;5074069;28;19978;-66
2021/09/01 03:21:31;;;;;;;;;;;;;;;9.77;100.00;101597.69;5073977;28;19929;-62
2021/09/01 03:23:57;;;;;;;;;;;;;;;9.79;100.00;101593.00;5073976;28;20026;-62
2021/09/01 03:26:26;;;;;;;;;;;;;;;9.77;100.00;101586.84;5073618;28;19946;-67
2021/09/01 03:28:52;;;;;;;;;;;;;;;9.74;100.00;101592.47;5074027;28;19956;-63
2021/09/01 03:31:19;;;;;;;;;;;;;;;9.79;100.00;101603.00;5073736;28;19960;-70
2021/09/01 03:33:45;;;;;;;;;;;;;;;9.92;100.00;101603.09;5073646;28;19931;-70
2021/09/01 03:36:11;;;;;;;;;;;;;;;10.03;100.00;101597.81;5073744;28;20472;-70
2021/09/01 03:38:38;;;;;;;;;;;;;;;10.15;100.00;101597.00;5073604;28;19967;-70
2021/09/01 03:41:04;;;;;;;;;;;;;;;10.27;100.00;101589.06;5073754;28;19925;-62
2021/09/01 03:43:31;;;;;;;;;;;;;;;10.45;100.00;101598.72;5073461;28;20302;-62
2021/09/01 03:45:58;;;;;;;;;;;;;;;10.55;100.00;101594.44;5073375;28;19930;-63
2021/09/01 03:48:24;;;;;;;;;;;;;;;10.69;100.00;101588.03;5073182;28;19924;-62
2021/09/01 03:50:50;;;;;;;;;;;;;;;10.71;100.00;101572.50;5073395;28;20027;-62
2021/09/01 03:53:19;;;;;;;;;;;;;;;10.74;100.00;101581.44;5073247;28;20135;-62
2021/09/01 03:55:45;;;;;;;;;;;;;;;10.78;100.00;101588.38;5073220;28;19928;-68
2021/09/01 03:58:12;;;;;;;;;;;;;;;10.80;100.00;101581.88;5073256;28;20312;-62
2021/09/01 04:00:40;;;;;;;;;;;;;;;10.84;100.00;101588.84;5073306;28;20289;-62
2021/09/01 04:03:06;;;;;;;;;;;;;;;10.85;100.00;101590.59;5073361;28;19947;-62
2021/09/01 04:05:33;;;;;;;;;;;;;;;10.93;100.00;101592.78;5055174;28;19935;-67
2021/09/01 04:07:59;;;;;;;;;;;;;;;10.90;100.00;101598.41;5072534;28;20018;-62
2021/09/01 04:10:26;;;;;;;;;;;;;;;10.94;100.00;101601.78;5073311;28;20175;-62
2021/09/01 04:12:52;;;;;;;;;;;;;;;10.88;100.00;101603.09;5072969;28;19925;-68
2021/09/01 04:15:18;;;;;;;;;;;;;;;10.86;100.00;101600.47;5072768;28;20065;-67
2021/09/01 04:17:47;;;;;;;;;;;;;;;10.84;100.00;101609.72;5072770;28;19925;-67
2021/09/01 04:20:13;;;;;;;;;;;;;;;10.80;100.00;101608.19;5072670;28;19924;-71
2021/09/01 04:22:39;;;;;;;;;;;;;;;10.70;100.00;101610.63;5072178;28;19939;-67
2021/09/01 04:25:06;;;;;;;;;;;;;;;10.69;100.00;101612.47;5072395;28;19931;-70
2021/09/01 04:27:33;;;;;;;;;;;;;;;10.68;100.00;101618.03;5071658;28;20431;-71
2021/09/01 04:29:59;;;;;;;;;;;;;;;10.69;100.00;101622.50;5072272;28;19928;-67
2021/09/01 04:32:25;;;;;;;;;;;;;;;10.72;100.00;101622.28;5072420;28;20011;-67
2021/09/01 04:34:53;;;;;;;;;;;;;;;10.74;100.00;101625.75;5072149;28;19924;-68
2021/09/01 04:37:19;;;;;;;;;;;;;;;10.76;100.00;101628.38;5071415;28;19935;-62
2021/09/01 04:39:45;;;;;;;;;;;;;;;10.81;100.00;101631.63;5072000;28;20431;-67
2021/09/01 04:42:12;;;;;;;;;;;;;;;10.84;100.00;101634.16;5071567;28;20035;-62
2021/09/01 04:44:38;;;;;;;;;;;;;;;10.88;100.00;101633.81;5071855;28;20015;-62
2021/09/01 04:47:04;;;;;;;;;;;;;;;10.98;100.00;101644.06;5071205;28;20358;-61
2021/09/01 04:49:31;;;;;;;;;;;;;;;11.01;100.00;101639.31;5071742;28;19933;-67
2021/09/01 04:51:58;;;;;;;;;;;;;;;11.08;100.00;101652.44;5071861;28;19930;-67
2021/09/01 04:54:24;;;;;;;;;;;;;;;11.10;100.00;101637.78;5071186;28;20403;-67
2021/09/01 04:56:51;;;;;;;;;;;;;;;11.17;100.00;101649.97;5071870;28;19924;-62
2021/09/01 04:59:17;;;;;;;;;;;;;;;11.24;100.00;101650.44;5072000;28;19924;-62
2021/09/01 05:01:43;;;;;;;;;;;;;;;11.34;100.00;101656.09;5071428;28;20011;-62
2021/09/01 05:04:09;;;;;;;;;;;;;;;11.41;100.00;101657.41;5071623;28;20319;-70
2021/09/01 05:06:36;;;;;;;;;;;;;;;11.45;100.00;101658.94;5071644;28;20031;-62
2021/09/01 05:09:03;;;;;;;;;;;;;;;11.52;100.00;101646.63;5071038;28;19925;-62
2021/09/01 05:11:30;;;;;;;;;;;;;;;11.56;100.00;101650.88;5070495;28;20023;-67
2021/09/01 05:13:56;;;;;;;;;;;;;;;11.60;100.00;101648.81;5071869;28;19935;-62
2021/09/01 05:16:22;;;;;;;;;;;;;;;11.62;100.00;101644.13;5071186;28;20027;-66
2021/09/01 05:18:48;;;;;;;;;;;;;;;11.65;100.00;101641.22;5071702;28;19931;-63
2021/09/01 05:21:15;;;;;;;;;;;;;;;11.70;100.00;101643.59;5071357;28;20396;-71
2021/09/01 05:23:42;;;;;;;;;;;;;;;11.75;100.00;101646.84;5071216;28;19925;-62
2021/09/01 05:26:10;;;;;;;;;;;;;;;11.83;100.00;101647.16;5071133;28;20303;-62
2021/09/01 05:28:37;;;;;;;;;;;;;;;12.00;100.00;101647.84;5071198;28;19938;-71
2021/09/01 05:31:04;;;;;;;;;;;;;;;12.30;100.00;101649.28;5071123;28;19924;-62
2021/09/01 05:33:31;;;;;;;;;;;;;;;12.62;100.00;101655.03;5070537;28;19939;-67
2021/09/01 05:35:58;;;;;;;;;;;;;;;13.00;100.00;101648.53;5070584;28;19928;-68
2021/09/01 05:38:24;;;;;;;;;;;;;;;13.35;100.00;101642.19;5069824;28;19931;-68
2021/09/01 05:40:51;;;;;;;;;;;;;;;13.78;100.00;101637.94;5070140;28;19928;-70
2021/09/01 05:43:20;;;;;;;;;;;;;;;13.97;100.00;101631.00;5070972;28;19924;-66
2021/09/01 05:45:47;;;;;;;;;;;;;;;14.11;100.00;101630.75;5071143;28;19935;-60
2021/09/01 05:48:13;;;;;;;;;;;;;;;14.02;100.00;101629.63;5070729;28;19978;-63
2021/09/01 05:50:41;;;;;;;;;;;;;;;14.22;100.00;101636.19;5071580;28;20404;-70
2021/09/01 05:53:08;;;;;;;;;;;;;;;14.48;100.00;101629.56;5071066;28;20514;-71
2021/09/01 05:55:36;;;;;;;;;;;;;;;14.79;100.00;101627.00;5069550;28;20019;-71
2021/09/01 05:58:04;;;;;;;;;;;;;;;14.73;100.00;101636.59;5051343;28;19925;-70
2021/09/01 06:00:34;;;;;;;;;;;;;;;14.98;100.00;101629.00;5070343;28;20237;-68
2021/09/01 06:03:03;;;;;;;;;;;;;;;15.21;100.00;101632.53;5071011;28;19924;-68
2021/09/01 06:05:29;;;;;;;;;;;;;;;15.46;100.00;101625.78;5070149;28;20283;-71
2021/09/01 06:07:56;;;;;;;;;;;;;;;15.33;100.00;101619.66;5070754;28;20039;-67
2021/09/01 06:10:25;;;;;;;;;;;;;;;15.55;100.00;101622.22;5070309;28;20334;-67
2021/09/01 06:12:53;;;;;;;;;;;;;;;15.98;100.00;101622.16;5071044;28;20319;-67
2021/09/01 06:15:19;;;;;;;;;;;;;;;16.15;100.00;101626.97;5070047;28;19931;-67
2021/09/01 06:17:47;;;;;;;;;;;;;;;16.43;100.00;101635.41;5070250;28;19924;-67
2021/09/01 06:20:13;;;;;;;;;;;;;;;16.67;100.00;101621.28;5070186;28;19924;-67
2021/09/01 06:22:40;;;;;;;;;;;;;;;17.26;100.00;101617.72;5070607;28;19931;-67
2021/09/01 06:25:06;;;;;;;;;;;;;;;17.66;100.00;101611.09;5070505;28;20019;-66
2021/09/01 06:27:33;;;;;;;;;;;;;;;17.71;100.00;101601.38;5070592;28;20420;-66
2021/09/01 06:29:59;;;;;;;;;;;;;;;17.47;100.00;101607.41;5070701;28;19924;-65
2021/09/01 06:32:25;;;;;;;;;;;;;;;17.79;100.00;101614.38;5070442;28;19928;-66
2021/09/01 06:34:53;;;;;;;;;;;;;;;17.71;100.00;101619.75;5070135;28;20034;-73
2021/09/01 06:37:19;;;;;;;;;;;;;;;17.71;100.00;101620.63;5070694;28;19924;-69
2021/09/01 06:39:45;;;;;;;;;;;;;;;18.14;100.00;101623.78;5070817;28;19962;-70
2021/09/01 06:42:12;;;;;;;;;;;;;;;18.50;100.00;101625.75;5070443;28;20130;-66
2021/09/01 06:44:38;;;;;;;;;;;;;;;18.51;100.00;101622.00;5070169;28;20307;-65
2021/09/01 06:47:05;;;;;;;;;;;;;;;18.72;100.00;101618.94;5070604;28;19946;-66
2021/09/01 06:49:31;;;;;;;;;;;;;;;18.90;100.00;101618.97;5070694;28;19962;-70
2021/09/01 06:51:58;;;;;;;;;;;;;;;19.36;100.00;101621.56;5072648;28;19931;-70
2021/09/01 06:54:25;;;;;;;;;;;;;;;19.20;100.00;101625.94;5074342;28;19924;-70
2021/09/01 06:56:51;;;;;;;;;;;;;;;18.38;100.00;101630.59;5074317;28;19932;-69
2021/09/01 06:59:17;;;;;;;;;;;;;;;18.14;100.00;101634.78;5073814;28;19924;-70
2021/09/01 07:01:44;;;;;;;;;;;;;;;18.19;100.00;101646.16;5074456;28;20015;-70
2021/09/01 07:04:10;;;;;;;;;;;;;;;17.84;100.00;101639.50;5073800;28;19925;-70
2021/09/01 07:06:36;;;;;;;;;;;;;;;17.88;100.00;101645.56;5073565;28;20086;-70
2021/09/01 07:09:04;;;;;;;;;;;;;;;17.68;100.00;101651.13;5073638;28;19924;-70
2021/09/01 07:11:30;;;;;;;;;;;;;;;17.59;100.00;101643.78;5070160;28;19960;-70
2021/09/01 07:13:56;;;;;;;;;;;;;;;17.51;100.00;101657.38;5073863;28;19947;-70
2021/09/01 07:16:24;;;;;;;;;;;;;;;17.30;100.00;101660.31;5073187;28;20031;-67
2021/09/01 07:18:50;;;;;;;;;;;;;;;17.08;100.00;101670.56;5073377;28;19928;-67
2021/09/01 07:21:16;;;;;;;;;;;;;;;16.95;100.00;101665.34;5073494;28;20022;-67
2021/09/01 07:23:43;;;;;;;;;;;;;;;16.89;100.00;101677.78;5073119;28;19932;-67
2021/09/01 07:26:12;;;;;;;;;;;;;;;16.84;100.00;101676.44;5073026;28;19924;-67
2021/09/01 07:28:38;;;;;;;;;;;;;;;16.72;100.00;101686.66;5073188;28;19947;-66
2021/09/01 07:31:05;;;;;;;;;;;;;;;16.72;100.00;101695.75;5073421;28;19978;-67
2021/09/01 07:33:31;;;;;;;;;;;;;;;16.70;100.00;101700.53;5073291;28;20067;-72
2021/09/01 07:35:58;;;;;;;;;;;;;;;16.65;100.00;101705.56;5073227;28;19925;-67
2021/09/01 07:38:24;;;;;;;;;;;;;;;16.65;100.00;101704.66;5071709;28;20031;-66
2021/09/01 07:40:51;;;;;;;;;;;;;;;16.52;100.00;101715.91;5073555;28;19924;-66
2021/09/01 07:43:19;;;;;;;;;;;;;;;16.51;100.00;101715.03;5073364;28;19928;-67
2021/09/01 07:45:46;;;;;;;;;;;;;;;16.57;100.00;101719.09;5071740;28;19925;-67
2021/09/01 07:48:13;;;;;;;;;;;;;;;16.45;100.00;101718.34;5072771;28;20027;-67
2021/09/01 07:50:40;;;;;;;;;;;;;;;16.32;100.00;101720.47;5072925;28;19924;-67
2021/09/01 07:53:06;;;;;;;;;;;;;;;16.44;100.00;101730.31;5055588;28;20310;-67
2021/09/01 07:55:32;;;;;;;;;;;;;;;16.51;100.00;101731.47;5072795;28;20367;-72
2021/09/01 07:57:58;;;;;;;;;;;;;;;16.61;100.00;101741.59;5072820;28;19946;-73
2021/09/01 08:00:26;;;;;;;;;;;;;;;16.69;100.00;101739.06;5073182;28;19952;-73
2021/09/01 08:02:53;;;;;;;;;;;;;;;16.67;100.00;101741.06;5072165;28;20001;-73
2021/09/01 08:05:19;;;;;;;;;;;;;;;16.77;100.00;101741.94;5072076;28;20459;-73
2021/09/01 08:07:46;;;;;;;;;;;;;;;16.86;100.00;101753.94;5072591;28;19931;-67
2021/09/01 08:10:12;;;;;;;;;;;;;;;16.99;100.00;101761.94;5072159;28;20031;-70
2021/09/01 08:12:39;;;;;;;;;;;;;;;17.07;100.00;101760.19;5071534;28;20019;-73
2021/09/01 08:15:06;;;;;;;;;;;;;;;17.12;100.00;101759.78;5072822;28;19924;-66
2021/09/01 08:17:34;;;;;;;;;;;;;;;17.33;100.00;101758.78;5071889;28;19932;-70
2021/09/01 08:20:00;;;;;;;;;;;;;;;17.55;100.00;101758.47;5072460;28;19930;-67
2021/09/01 08:22:26;;;;;;;;;;;;;;;17.84;100.00;101754.84;5072156;28;20027;-67
2021/09/01 08:24:53;;;;;;;;;;;;;;;18.05;100.00;101745.56;5072065;28;19924;-67
2021/09/01 08:27:19;;;;;;;;;;;;;;;18.14;100.00;101747.41;5069721;28;20377;-73
2021/09/01 08:29:45;;;;;;;;;;;;;;;18.13;100.00;101751.22;5072356;28;19931;-73
2021/09/01 08:32:12;;;;;;;;;;;;;;;18.46;100.00;101759.03;5072658;28;20044;-73
2021/09/01 08:34:39;;;;;;;;;;;;;;;18.46;100.00;101748.03;5071853;28;19934;-66
2021/09/01 08:37:06;;;;;;;;;;;;;;;18.19;100.00;101755.22;5072469;28;19931;-67
2021/09/01 08:39:33;;;;;;;;;;;;;;;18.20;100.00;101757.81;5070167;28;19932;-73
2021/09/01 08:42:00;;;;;;;;;;;;;;;18.58;100.00;101744.91;5071197;28;20027;-73
2021/09/01 08:44:26;;;;;;;;;;;;;;;18.74;100.00;101754.38;5068966;28;20379;-67
2021/09/01 08:46:56;;;;;;;;;;;;;;;18.96;100.00;101763.25;5070865;28;19928;-67
2021/09/01 08:49:23;;;;;;;;;;;;;;;19.01;100.00;101756.28;5071557;28;20310;-67
2021/09/01 08:51:51;;;;;;;;;;;;;;;18.90;100.00;101760.09;5071344;28;20022;-67
2021/09/01 08:54:17;;;;;;;;;;;;;;;18.65;100.00;101756.19;5071921;28;19999;-66
2021/09/01 08:56:44;;;;;;;;;;;;;;;18.76;100.00;101762.47;5071600;28;19926;-66
2021/09/01 08:59:10;;;;;;;;;;;;;;;18.73;100.00;101770.03;5071109;28;19924;-66
2021/09/01 09:01:41;;;;;;;;;;;;;;;18.56;100.00;101760.72;5071379;28;20289;-67
2021/09/01 09:04:08;;;;;;;;;;;;;;;19.03;100.00;101758.88;5071502;28;19960;-67
2021/09/01 09:06:43;;;;;;;;;;;;;;;20.04;100.00;101746.69;5071728;28;19928;-67
2021/09/01 09:09:11;;;;;;;;;;;;;;;20.26;100.00;101745.28;5071771;28;19964;-67
2021/09/01 09:11:37;;;;;;;;;;;;;;;20.39;100.00;101753.97;5071464;28;20027;-67
2021/09/01 09:14:15;;;;;;;;;;;;;;;20.31;100.00;101747.53;5070228;28;19932;-73
2021/09/01 09:16:41;;;;;;;;;;;;;;;20.37;100.00;101753.25;5070721;28;19946;-73
2021/09/01 09:19:07;;;;;;;;;;;;;;;20.10;100.00;101739.69;5071473;28;20359;-73
2021/09/01 09:21:35;;;;;;;;;;;;;;;19.58;100.00;101757.84;5071565;28;20406;-72
2021/09/01 09:24:17;;;;;;;;;;;;;;;20.29;100.00;101747.69;5071153;28;19924;-70
2021/09/01 09:26:44;;;;;;;;;;;;;;;21.44;100.00;101747.19;5071569;28;19924;-73
2021/09/01 09:29:12;;;;;;;;;;;;;;;21.49;100.00;101744.78;5071406;28;20319;-73
2021/09/01 09:31:39;;;;;;;;;;;;;;;20.85;100.00;101750.03;5071715;28;19928;-73
2021/09/01 09:34:06;;;;;;;;;;;;;;;20.00;100.00;101753.53;5071687;28;19959;-73
2021/09/01 09:36:33;;;;;;;;;;;;;;;19.47;100.00;101758.09;5071216;28;20308;-73
2021/09/01 09:38:59;;;;;;;;;;;;;;;19.29;100.00;101764.47;5071396;28;19931;-71
2021/09/01 09:41:28;;;;;;;;;;;;;;;19.20;100.00;101760.78;5071397;28;19931;-71
2021/09/01 09:43:57;;;;;;;;;;;;;;;19.75;100.00;101764.38;5071356;28;19928;-71
2021/09/01 09:46:24;;;;;;;;;;;;;;;19.39;100.00;101758.91;5071168;28;19985;-67
2021/09/01 09:48:51;;;;;;;;;;;;;;;19.24;100.00;101772.31;5071296;28;19975;-73
2021/09/01 09:51:18;;;;;;;;;;;;;;;18.94;100.00;101773.56;5071420;28;19970;-73
2021/09/01 09:53:45;;;;;;;;;;;;;;;18.64;100.00;101768.19;5071176;28;19930;-73
2021/09/01 09:56:13;;;;;;;;;;;;;;;19.23;100.00;101771.47;5071314;28;20015;-73
2021/09/01 09:58:40;;;;;;;;;;;;;;;19.20;100.00;101760.78;5070677;28;20047;-73
2021/09/01 10:01:09;;;;;;;;;;;;;;;18.83;100.00;101772.72;5071251;28;19925;-71
2021/09/01 10:03:35;;;;;;;;;;;;;;;18.57;100.00;101770.69;5071299;28;19924;-73
2021/09/01 10:06:02;;;;;;;;;;;;;;;18.76;100.00;101778.97;5070818;28;19928;-73
2021/09/01 10:08:29;;;;;;;;;;;;;;;18.69;100.00;101771.38;5071239;28;19977;-66
2021/09/01 10:10:56;;;;;;;;;;;;;;;18.75;100.00;101780.88;5070984;28;20304;-67
2021/09/01 10:13:24;;;;;;;;;;;;;;;18.86;100.00;101775.16;5070930;28;19924;-66
2021/09/01 10:15:52;;;;;;;;;;;;;;;18.88;100.00;101773.16;5050486;28;19960;-66
2021/09/01 10:18:20;;;;;;;;;;;;;;;18.63;100.00;101779.34;5050585;28;19931;-66
2021/09/01 10:20:46;;;;;;;;;;;;;;;18.63;100.00;101779.34;5051036;28;19924;-67
2021/09/01 10:23:13;;;;;;;;;;;;;;;18.31;100.00;101780.66;5050806;28;20027;-67
2021/09/01 10:25:41;;;;;;;;;;;;;;;18.12;100.00;101773.31;5051059;28;19935;-67
2021/09/01 10:28:26;;;;;;;;;;;;;;;18.23;100.00;101792.38;5036633;28;19928;-73
2021/09/01 10:31:11;;;;;;;;;;;;;;;18.34;100.00;101783.94;5054678;28;19925;-73
2021/09/01 10:33:41;;;;;;;;;;;;;;;18.22;100.00;101788.75;5055031;28;20332;-72
2021/09/01 10:36:22;;;;;;;;;;;;;;;18.30;100.00;101788.00;5069274;28;19934;-73
2021/09/01 10:38:48;;;;;;;;;;;;;;;18.43;100.00;101790.44;5061857;28;19934;-67
2021/09/01 10:41:26;;;;;;;;;;;;;;;18.44;100.00;101785.78;5074455;28;19924;-66
2021/09/01 10:43:54;;;;;;;;;;;;;;;18.61;100.00;101787.72;5074513;28;20276;-66
2021/09/01 10:46:20;;;;;;;;;;;;;;;18.52;100.00;101784.03;5073791;28;20384;-65
2021/09/01 10:48:57;;;;;;;;;;;;;;;18.42;100.00;101788.69;5074336;28;20351;-66
2021/09/01 10:51:26;;;;;;;;;;;;;;;18.46;100.00;101790.13;5074645;28;20384;-66
2021/09/01 10:53:53;;;;;;;;;;;;;;;18.56;100.00;101779.94;5073819;28;19946;-65
2021/09/01 10:56:19;;;;;;;;;;;;;;;18.73;100.00;101786.53;5074051;28;19931;-65
2021/09/01 10:58:47;;;;;;;;;;;;;;;18.77;100.00;101787.06;5073490;28;19924;-66
2021/09/01 11:01:16;;;;;;;;;;;;;;;18.78;100.00;101788.81;5074075;28;19960;-67
2021/09/01 11:03:48;;;;;;;;;;;;;;;18.64;100.00;101770.94;5074146;28;20411;-73
2021/09/01 11:06:17;;;;;;;;;;;;;;;18.47;100.00;101785.50;5073485;28;20011;-73
2021/09/01 11:08:59;;;;;;;;;;;;;;;18.96;100.00;101780.66;5073892;28;19967;-73
2021/09/01 11:11:36;;;;;;;;;;;;;;;19.44;100.00;101778.56;5072919;28;20451;-72
2021/09/01 11:14:02;;;;;;;;;;;;;;;20.27;100.00;101776.44;5073697;28;19925;-73
2021/09/01 11:16:29;;;;;;;;;;;;;;;20.33;100.00;101771.16;5073949;28;20015;-73
2021/09/01 11:18:59;;;;;;;;;;;;;;;20.76;100.00;101768.44;5073400;28;19952;-72
2021/09/01 11:21:27;;;;;;;;;;;;;;;20.92;100.00;101777.81;5073859;28;20026;-74
2021/09/01 11:23:54;;;;;;;;;;;;;;;20.33;100.00;101773.91;5073241;28;19933;-73
2021/09/01 11:26:21;;;;;;;;;;;;;;;20.15;100.00;101787.75;5073698;28;19924;-73
2021/09/01 11:28:48;;;;;;;;;;;;;;;20.00;100.00;101790.25;5073343;28;19924;-72
2021/09/01 11:31:18;;;;;;;;;;;;;;;20.19;100.00;101786.41;5053401;28;19972;-72
2021/09/01 11:33:44;;;;;;;;;;;;;;;20.18;100.00;101794.84;5055288;28;20019;-66
2021/09/01 11:36:11;;;;;;;;;;;;;;;20.65;100.00;101788.03;5073279;28;19924;-66
2021/09/01 11:38:45;;;;;;;;;;;;;;;20.64;100.00;101783.53;5072205;28;19928;-66
2021/09/01 11:41:12;;;;;;;;;;;;;;;20.93;100.00;101796.97;5073512;28;20023;-66
2021/09/01 11:43:38;;;;;;;;;;;;;;;20.85;100.00;101799.69;5072351;28;19929;-67
2021/09/01 11:46:04;;;;;;;;;;;;;;;20.28;100.00;101798.34;5073119;28;20019;-67
2021/09/01 11:48:38;;;;;;;;;;;;;;;20.59;100.00;101786.81;5072691;28;20002;-67
2021/09/01 11:51:05;;;;;;;;;;;;;;;21.51;100.00;101788.81;5072995;28;20002;-73
2021/09/01 11:53:38;;;;;;;;;;;;;;;22.35;100.00;101783.09;5069687;28;20007;-66
2021/09/01 11:56:06;;;;;;;;;;;;;;;22.24;100.00;101774.09;5071690;28;20026;-67
2021/09/01 11:58:32;;;;;;;;;;;;;;;22.61;100.00;101780.06;5072718;28;20011;-66
2021/09/01 12:00:59;;;;;;;;;;;;;;;23.17;100.00;101779.09;5073154;28;20011;-67
2021/09/01 12:03:26;;;;;;;;;;;;;;;23.28;100.00;101780.63;5072792;28;20378;-67
2021/09/01 12:06:05;;;;;;;;;;;;;;;23.69;100.00;101783.94;5072975;28;19956;-65
2021/09/01 12:08:41;;;;;;;;;;;;;;;24.00;100.00;101784.91;5055571;28;20288;-64
2021/09/01 12:11:08;;;;;;;;;;;;;;;23.85;100.00;101780.16;5073210;28;19924;-67
2021/09/01 12:13:38;;;;;;;;;;;;;;;23.16;100.00;101777.41;5072613;28;20093;-73
2021/09/01 12:16:05;;;;;;;;;;;;;;;22.67;100.00;101775.72;5072495;28;20395;-73
2021/09/01 12:18:47;;;;;;;;;;;;;;;23.38;100.00;101781.22;5072558;28;19968;-73
2021/09/01 12:21:13;;;;;;;;;;;;;;;23.82;100.00;101772.19;5072504;28;20190;-73
2021/09/01 12:23:39;;;;;;;;;;;;;;;24.54;100.00;101770.75;5072275;28;19928;-71
2021/09/01 12:26:06;;;;;;;;;;;;;;;24.78;100.00;101768.78;5072373;28;19924;-73
2021/09/01 12:28:44;;;;;;;;;;;;;;;25.26;100.00;101767.41;5071673;28;19924;-73